sensor_id;sensor_type;location;lat;lon;timestamp;P1;durP1;ratioP1;P2;durP2;ratioP2
6926;SDS011;3503;50.07605000;8.86719200;2023-04-06T00:11:35;11.30;;;3.87;;
6926;SDS011;3503;50.07605000;8.86719200;2023-04-06T00:26:38;8.90;;;3.80;;
6926;SDS011;3503;50.07605000;8.86719200;2023-04-06T00:41:42;8.30;;;3.77;;
6926;SDS011;3503;50.07605000;8.86719200;2023-04-06T00:56:48;7.90;;;4.77;;
6926;SDS011;3503;50.07605000;8.86719200;2023-04-06T01:11:52;9.70;;;3.80;;
6926;SDS011;3503;50.07605000;8.86719200;2023-04-06T01:26:55;8.63;;;4.53;;
6926;SDS011;3503;50.07605000;8.86719200;2023-04-06T01:41:58;7.80;;;4.10;;
6926;SDS011;3503;50.07605000;8.86719200;2023-04-06T01:57:02;8.50;;;4.20;;
6926;SDS011;3503;50.07605000;8.86719200;2023-04-06T02:12:05;6.83;;;3.60;;
6926;SDS011;3503;50.07605000;8.86719200;2023-04-06T02:27:08;7.80;;;4.30;;
6926;SDS011;3503;50.07605000;8.86719200;2023-04-06T02:42:11;6.47;;;4.10;;
6926;SDS011;3503;50.07605000;8.86719200;2023-04-06T02:57:16;7.63;;;4.07;;
6926;SDS011;3503;50.07605000;8.86719200;2023-04-06T03:12:19;12.70;;;5.20;;
6926;SDS011;3503;50.07605000;8.86719200;2023-04-06T03:27:22;7.43;;;4.30;;
6926;SDS011;3503;50.07605000;8.86719200;2023-04-06T03:42:26;8.10;;;4.10;;
6926;SDS011;3503;50.07605000;8.86719200;2023-04-06T03:57:29;8.17;;;4.00;;
6926;SDS011;3503;50.07605000;8.86719200;2023-04-06T04:12:32;11.63;;;5.57;;
6926;SDS011;3503;50.07605000;8.86719200;2023-04-06T04:27:35;16.30;;;4.77;;
6926;SDS011;3503;50.07605000;8.86719200;2023-04-06T04:42:38;9.87;;;4.53;;
6926;SDS011;3503;50.07605000;8.86719200;2023-04-06T04:57:41;7.90;;;4.93;;
6926;SDS011;3503;50.07605000;8.86719200;2023-04-06T05:12:45;12.27;;;5.70;;
6926;SDS011;3503;50.07605000;8.86719200;2023-04-06T05:27:48;12.17;;;6.30;;
6926;SDS011;3503;50.07605000;8.86719200;2023-04-06T05:42:51;18.47;;;5.33;;
6926;SDS011;3503;50.07605000;8.86719200;2023-04-06T05:57:54;10.00;;;5.93;;
6926;SDS011;3503;50.07605000;8.86719200;2023-04-06T06:12:58;14.53;;;6.90;;
6926;SDS011;3503;50.07605000;8.86719200;2023-04-06T06:28:01;13.40;;;6.30;;
6926;SDS011;3503;50.07605000;8.86719200;2023-04-06T06:43:04;14.23;;;7.20;;
6926;SDS011;3503;50.07605000;8.86719200;2023-04-06T06:58:07;14.83;;;6.83;;
6926;SDS011;3503;50.07605000;8.86719200;2023-04-06T07:13:10;10.37;;;6.40;;
6926;SDS011;3503;50.07605000;8.86719200;2023-04-06T07:28:13;10.40;;;6.20;;
6926;SDS011;3503;50.07605000;8.86719200;2023-04-06T07:43:16;17.77;;;6.77;;
6926;SDS011;3503;50.07605000;8.86719200;2023-04-06T07:58:20;9.97;;;5.87;;
6926;SDS011;3503;50.07605000;8.86719200;2023-04-06T08:13:23;10.87;;;6.60;;
6926;SDS011;3503;50.07605000;8.86719200;2023-04-06T08:28:26;10.97;;;5.77;;
6926;SDS011;3503;50.07605000;8.86719200;2023-04-06T08:43:29;12.63;;;7.27;;
6926;SDS011;3503;50.07605000;8.86719200;2023-04-06T08:58:34;11.53;;;6.27;;
6926;SDS011;3503;50.07605000;8.86719200;2023-04-06T09:13:48;12.30;;;7.00;;
6926;SDS011;3503;50.07605000;8.86719200;2023-04-06T09:28:53;13.10;;;6.63;;
6926;SDS011;3503;50.07605000;8.86719200;2023-04-06T09:44:03;13.27;;;5.50;;
6926;SDS011;3503;50.07605000;8.86719200;2023-04-06T09:59:08;13.33;;;6.10;;
6926;SDS011;3503;50.07605000;8.86719200;2023-04-06T10:14:12;14.13;;;6.43;;
6926;SDS011;3503;50.07605000;8.86719200;2023-04-06T10:29:15;19.23;;;7.00;;
6926;SDS011;3503;50.07605000;8.86719200;2023-04-06T10:44:18;15.33;;;6.63;;
6926;SDS011;3503;50.07605000;8.86719200;2023-04-06T10:59:22;17.30;;;7.13;;
6926;SDS011;3503;50.07605000;8.86719200;2023-04-06T11:14:26;13.50;;;7.10;;
6926;SDS011;3503;50.07605000;8.86719200;2023-04-06T11:29:30;15.70;;;7.73;;
6926;SDS011;3503;50.07605000;8.86719200;2023-04-06T11:44:34;10.43;;;7.67;;
6926;SDS011;3503;50.07605000;8.86719200;2023-04-06T11:59:37;15.07;;;8.50;;
6926;SDS011;3503;50.07605000;8.86719200;2023-04-06T12:14:40;12.07;;;6.53;;
6926;SDS011;3503;50.07605000;8.86719200;2023-04-06T12:29:44;10.67;;;6.53;;
6926;SDS011;3503;50.07605000;8.86719200;2023-04-06T12:44:47;12.33;;;7.10;;
6926;SDS011;3503;50.07605000;8.86719200;2023-04-06T12:59:50;9.40;;;6.43;;
6926;SDS011;3503;50.07605000;8.86719200;2023-04-06T13:14:54;12.80;;;7.10;;
6926;SDS011;3503;50.07605000;8.86719200;2023-04-06T13:29:57;10.87;;;6.10;;
6926;SDS011;3503;50.07605000;8.86719200;2023-04-06T13:45:00;8.67;;;5.20;;
6926;SDS011;3503;50.07605000;8.86719200;2023-04-06T14:00:03;12.50;;;6.00;;
6926;SDS011;3503;50.07605000;8.86719200;2023-04-06T14:15:08;9.03;;;5.47;;
6926;SDS011;3503;50.07605000;8.86719200;2023-04-06T14:30:13;11.60;;;6.13;;
6926;SDS011;3503;50.07605000;8.86719200;2023-04-06T14:45:17;10.03;;;6.10;;
6926;SDS011;3503;50.07605000;8.86719200;2023-04-06T15:00:21;9.03;;;5.20;;
6926;SDS011;3503;50.07605000;8.86719200;2023-04-06T15:15:24;11.60;;;5.77;;
6926;SDS011;3503;50.07605000;8.86719200;2023-04-06T15:30:27;11.30;;;6.50;;
6926;SDS011;3503;50.07605000;8.86719200;2023-04-06T15:45:30;9.00;;;5.03;;
6926;SDS011;3503;50.07605000;8.86719200;2023-04-06T16:00:33;12.53;;;5.23;;
6926;SDS011;3503;50.07605000;8.86719200;2023-04-06T16:15:36;8.53;;;5.27;;
6926;SDS011;3503;50.07605000;8.86719200;2023-04-06T16:30:39;12.80;;;4.93;;
6926;SDS011;3503;50.07605000;8.86719200;2023-04-06T16:45:50;9.87;;;4.20;;
6926;SDS011;3503;50.07605000;8.86719200;2023-04-06T17:00:53;7.47;;;3.23;;
6926;SDS011;3503;50.07605000;8.86719200;2023-04-06T17:15:56;6.90;;;3.13;;
6926;SDS011;3503;50.07605000;8.86719200;2023-04-06T17:30:59;7.67;;;3.80;;
6926;SDS011;3503;50.07605000;8.86719200;2023-04-06T17:46:02;11.07;;;4.30;;
6926;SDS011;3503;50.07605000;8.86719200;2023-04-06T18:01:06;4.80;;;2.90;;
6926;SDS011;3503;50.07605000;8.86719200;2023-04-06T18:16:11;5.40;;;2.97;;
6926;SDS011;3503;50.07605000;8.86719200;2023-04-06T18:31:14;4.20;;;2.43;;
6926;SDS011;3503;50.07605000;8.86719200;2023-04-06T18:46:17;8.80;;;3.43;;
6926;SDS011;3503;50.07605000;8.86719200;2023-04-06T19:01:21;10.50;;;3.23;;
6926;SDS011;3503;50.07605000;8.86719200;2023-04-06T19:16:25;6.73;;;3.80;;
6926;SDS011;3503;50.07605000;8.86719200;2023-04-06T19:31:29;5.70;;;3.23;;
6926;SDS011;3503;50.07605000;8.86719200;2023-04-06T19:46:32;5.77;;;3.50;;
6926;SDS011;3503;50.07605000;8.86719200;2023-04-06T20:01:35;10.03;;;3.90;;
6926;SDS011;3503;50.07605000;8.86719200;2023-04-06T20:16:38;8.97;;;4.53;;
6926;SDS011;3503;50.07605000;8.86719200;2023-04-06T20:31:41;9.27;;;4.90;;
6926;SDS011;3503;50.07605000;8.86719200;2023-04-06T20:46:44;6.93;;;4.33;;
6926;SDS011;3503;50.07605000;8.86719200;2023-04-06T21:01:48;10.10;;;5.37;;
6926;SDS011;3503;50.07605000;8.86719200;2023-04-06T21:16:51;19.80;;;5.63;;
6926;SDS011;3503;50.07605000;8.86719200;2023-04-06T21:31:56;12.30;;;7.23;;
6926;SDS011;3503;50.07605000;8.86719200;2023-04-06T21:46:59;11.70;;;6.87;;
6926;SDS011;3503;50.07605000;8.86719200;2023-04-06T22:02:02;14.60;;;7.87;;
6926;SDS011;3503;50.07605000;8.86719200;2023-04-06T22:17:05;16.23;;;9.37;;
6926;SDS011;3503;50.07605000;8.86719200;2023-04-06T22:32:08;14.50;;;8.20;;
6926;SDS011;3503;50.07605000;8.86719200;2023-04-06T22:47:11;15.13;;;7.73;;
6926;SDS011;3503;50.07605000;8.86719200;2023-04-06T23:02:14;17.37;;;9.20;;
6926;SDS011;3503;50.07605000;8.86719200;2023-04-06T23:17:17;20.27;;;8.17;;
6926;SDS011;3503;50.07605000;8.86719200;2023-04-06T23:32:20;18.40;;;9.70;;
6926;SDS011;3503;50.07605000;8.86719200;2023-04-06T23:47:25;30.87;;;10.40;;
